sensor_id;sensor_type;location;lat;lon;timestamp;P1;durP1;ratioP1;P2;durP2;ratioP2
27424;SDS011;15244;49.088;11.886;2022-07-23T00:03:46;6.03;;;5.53;;
27424;SDS011;15244;49.088;11.886;2022-07-23T00:08:47;6.40;;;5.88;;
27424;SDS011;15244;49.088;11.886;2022-07-23T00:13:49;5.82;;;5.32;;
27424;SDS011;15244;49.088;11.886;2022-07-23T00:18:51;6.25;;;5.85;;
27424;SDS011;15244;49.088;11.886;2022-07-23T00:23:52;6.28;;;5.88;;
27424;SDS011;15244;49.088;11.886;2022-07-23T00:28:54;7.03;;;5.65;;
27424;SDS011;15244;49.088;11.886;2022-07-23T00:33:56;6.68;;;5.50;;
27424;SDS011;15244;49.088;11.886;2022-07-23T00:38:58;5.80;;;5.50;;
27424;SDS011;15244;49.088;11.886;2022-07-23T00:44:22;6.22;;;5.60;;
27424;SDS011;15244;49.088;11.886;2022-07-23T00:49:24;6.50;;;5.85;;
27424;SDS011;15244;49.088;11.886;2022-07-23T00:54:27;6.95;;;6.28;;
27424;SDS011;15244;49.088;11.886;2022-07-23T00:59:29;7.72;;;5.50;;
27424;SDS011;15244;49.088;11.886;2022-07-23T01:04:31;7.43;;;6.78;;
27424;SDS011;15244;49.088;11.886;2022-07-23T01:09:32;6.60;;;6.10;;
27424;SDS011;15244;49.088;11.886;2022-07-23T01:14:34;5.85;;;5.50;;
27424;SDS011;15244;49.088;11.886;2022-07-23T01:19:36;5.95;;;5.55;;
27424;SDS011;15244;49.088;11.886;2022-07-23T01:24:38;6.05;;;5.65;;
27424;SDS011;15244;49.088;11.886;2022-07-23T01:29:40;6.53;;;5.97;;
27424;SDS011;15244;49.088;11.886;2022-07-23T01:39:50;6.28;;;5.78;;
27424;SDS011;15244;49.088;11.886;2022-07-23T01:44:52;7.13;;;6.53;;
27424;SDS011;15244;49.088;11.886;2022-07-23T01:49:55;6.57;;;6.07;;
27424;SDS011;15244;49.088;11.886;2022-07-23T01:55:23;6.20;;;5.70;;
27424;SDS011;15244;49.088;11.886;2022-07-23T02:00:25;6.47;;;5.97;;
27424;SDS011;15244;49.088;11.886;2022-07-23T02:05:27;7.22;;;5.88;;
27424;SDS011;15244;49.088;11.886;2022-07-23T02:10:33;5.95;;;5.55;;
27424;SDS011;15244;49.088;11.886;2022-07-23T02:15:37;7.25;;;6.60;;
27424;SDS011;15244;49.088;11.886;2022-07-23T02:20:39;6.82;;;6.40;;
27424;SDS011;15244;49.088;11.886;2022-07-23T02:25:41;9.02;;;7.60;;
27424;SDS011;15244;49.088;11.886;2022-07-23T02:30:44;9.05;;;8.02;;
27424;SDS011;15244;49.088;11.886;2022-07-23T02:35:46;8.45;;;7.75;;
27424;SDS011;15244;49.088;11.886;2022-07-23T02:40:48;7.30;;;6.60;;
27424;SDS011;15244;49.088;11.886;2022-07-23T02:45:51;7.32;;;6.78;;
27424;SDS011;15244;49.088;11.886;2022-07-23T02:50:53;6.85;;;6.35;;
27424;SDS011;15244;49.088;11.886;2022-07-23T02:56:02;7.25;;;6.45;;
27424;SDS011;15244;49.088;11.886;2022-07-23T03:01:04;6.40;;;5.53;;
27424;SDS011;15244;49.088;11.886;2022-07-23T03:06:06;5.70;;;5.20;;
27424;SDS011;15244;49.088;11.886;2022-07-23T03:11:09;5.65;;;5.25;;
27424;SDS011;15244;49.088;11.886;2022-07-23T03:21:20;4.60;;;4.30;;
27424;SDS011;15244;49.088;11.886;2022-07-23T03:26:21;4.68;;;4.38;;
27424;SDS011;15244;49.088;11.886;2022-07-23T03:31:26;4.72;;;4.43;;
27424;SDS011;15244;49.088;11.886;2022-07-23T03:36:28;3.65;;;3.35;;
27424;SDS011;15244;49.088;11.886;2022-07-23T03:41:30;4.57;;;4.28;;
27424;SDS011;15244;49.088;11.886;2022-07-23T03:46:33;3.70;;;3.50;;
27424;SDS011;15244;49.088;11.886;2022-07-23T03:51:35;4.50;;;4.10;;
27424;SDS011;15244;49.088;11.886;2022-07-23T03:56:37;4.28;;;3.95;;
27424;SDS011;15244;49.088;11.886;2022-07-23T04:01:39;4.47;;;4.05;;
27424;SDS011;15244;49.088;11.886;2022-07-23T04:06:41;4.18;;;3.90;;
27424;SDS011;15244;49.088;11.886;2022-07-23T04:11:42;4.22;;;3.88;;
27424;SDS011;15244;49.088;11.886;2022-07-23T04:16:45;4.50;;;4.10;;
27424;SDS011;15244;49.088;11.886;2022-07-23T04:21:47;4.93;;;3.28;;
27424;SDS011;15244;49.088;11.886;2022-07-23T04:26:49;3.53;;;3.30;;
27424;SDS011;15244;49.088;11.886;2022-07-23T04:31:51;3.03;;;2.70;;
27424;SDS011;15244;49.088;11.886;2022-07-23T04:36:53;4.60;;;2.97;;
27424;SDS011;15244;49.088;11.886;2022-07-23T04:41:55;3.47;;;3.28;;
27424;SDS011;15244;49.088;11.886;2022-07-23T04:46:57;3.20;;;2.90;;
27424;SDS011;15244;49.088;11.886;2022-07-23T04:51:59;3.40;;;3.20;;
27424;SDS011;15244;49.088;11.886;2022-07-23T04:57:01;2.97;;;2.75;;
27424;SDS011;15244;49.088;11.886;2022-07-23T05:02:02;3.10;;;2.83;;
27424;SDS011;15244;49.088;11.886;2022-07-23T05:07:05;4.35;;;2.67;;
27424;SDS011;15244;49.088;11.886;2022-07-23T05:12:08;3.40;;;2.85;;
27424;SDS011;15244;49.088;11.886;2022-07-23T05:17:10;2.55;;;2.42;;
27424;SDS011;15244;49.088;11.886;2022-07-23T05:22:11;3.47;;;2.60;;
27424;SDS011;15244;49.088;11.886;2022-07-23T05:27:13;3.85;;;2.55;;
27424;SDS011;15244;49.088;11.886;2022-07-23T05:32:16;3.17;;;2.50;;
27424;SDS011;15244;49.088;11.886;2022-07-23T05:37:25;3.17;;;2.45;;
27424;SDS011;15244;49.088;11.886;2022-07-23T05:42:27;2.60;;;2.40;;
27424;SDS011;15244;49.088;11.886;2022-07-23T05:47:38;2.92;;;2.72;;
27424;SDS011;15244;49.088;11.886;2022-07-23T05:52:45;2.70;;;2.50;;
27424;SDS011;15244;49.088;11.886;2022-07-23T05:58:02;2.60;;;2.40;;
27424;SDS011;15244;49.088;11.886;2022-07-23T06:03:04;2.17;;;2.08;;
27424;SDS011;15244;49.088;11.886;2022-07-23T06:08:06;2.60;;;2.40;;
27424;SDS011;15244;49.088;11.886;2022-07-23T06:13:08;2.67;;;2.47;;
27424;SDS011;15244;49.088;11.886;2022-07-23T06:18:10;3.88;;;2.47;;
27424;SDS011;15244;49.088;11.886;2022-07-23T06:23:13;2.40;;;2.30;;
27424;SDS011;15244;49.088;11.886;2022-07-23T06:28:15;2.65;;;2.45;;
27424;SDS011;15244;49.088;11.886;2022-07-23T06:33:16;2.45;;;2.25;;
27424;SDS011;15244;49.088;11.886;2022-07-23T06:38:18;2.80;;;2.60;;
27424;SDS011;15244;49.088;11.886;2022-07-23T06:43:21;3.50;;;2.58;;
27424;SDS011;15244;49.088;11.886;2022-07-23T06:48:27;2.63;;;2.42;;
27424;SDS011;15244;49.088;11.886;2022-07-23T06:53:30;2.70;;;2.60;;
27424;SDS011;15244;49.088;11.886;2022-07-23T06:58:32;2.70;;;2.60;;
27424;SDS011;15244;49.088;11.886;2022-07-23T07:03:34;2.35;;;2.22;;
27424;SDS011;15244;49.088;11.886;2022-07-23T07:08:35;3.05;;;2.90;;
27424;SDS011;15244;49.088;11.886;2022-07-23T07:13:37;2.78;;;2.58;;
27424;SDS011;15244;49.088;11.886;2022-07-23T07:18:39;3.45;;;3.22;;
27424;SDS011;15244;49.088;11.886;2022-07-23T07:23:41;2.92;;;2.70;;
27424;SDS011;15244;49.088;11.886;2022-07-23T07:28:43;3.90;;;3.60;;
27424;SDS011;15244;49.088;11.886;2022-07-23T07:33:44;2.60;;;2.40;;
27424;SDS011;15244;49.088;11.886;2022-07-23T07:38:47;4.53;;;2.17;;
27424;SDS011;15244;49.088;11.886;2022-07-23T07:43:50;2.47;;;2.38;;
27424;SDS011;15244;49.088;11.886;2022-07-23T07:48:51;2.35;;;2.25;;
27424;SDS011;15244;49.088;11.886;2022-07-23T07:53:58;2.17;;;2.08;;
27424;SDS011;15244;49.088;11.886;2022-07-23T07:59:01;2.53;;;2.33;;
27424;SDS011;15244;49.088;11.886;2022-07-23T08:04:03;2.40;;;2.30;;
27424;SDS011;15244;49.088;11.886;2022-07-23T08:09:06;2.35;;;2.15;;
27424;SDS011;15244;49.088;11.886;2022-07-23T08:14:07;4.10;;;2.50;;
27424;SDS011;15244;49.088;11.886;2022-07-23T08:19:10;2.80;;;2.70;;
27424;SDS011;15244;49.088;11.886;2022-07-23T08:24:12;2.72;;;2.55;;
27424;SDS011;15244;49.088;11.886;2022-07-23T08:29:13;2.58;;;2.47;;
27424;SDS011;15244;49.088;11.886;2022-07-23T08:34:15;3.45;;;3.25;;
27424;SDS011;15244;49.088;11.886;2022-07-23T08:39:17;2.20;;;2.10;;
27424;SDS011;15244;49.088;11.886;2022-07-23T08:44:18;2.25;;;2.10;;
27424;SDS011;15244;49.088;11.886;2022-07-23T08:49:20;3.20;;;3.00;;
27424;SDS011;15244;49.088;11.886;2022-07-23T08:54:24;2.50;;;2.40;;
27424;SDS011;15244;49.088;11.886;2022-07-23T08:59:26;2.80;;;2.70;;
27424;SDS011;15244;49.088;11.886;2022-07-23T09:04:28;9.07;;;2.90;;
27424;SDS011;15244;49.088;11.886;2022-07-23T09:09:32;2.90;;;2.70;;
27424;SDS011;15244;49.088;11.886;2022-07-23T09:14:41;2.85;;;2.75;;
27424;SDS011;15244;49.088;11.886;2022-07-23T09:19:45;3.10;;;2.90;;
27424;SDS011;15244;49.088;11.886;2022-07-23T09:25:04;2.72;;;2.63;;
27424;SDS011;15244;49.088;11.886;2022-07-23T09:30:09;2.70;;;2.60;;
27424;SDS011;15244;49.088;11.886;2022-07-23T09:35:11;3.08;;;2.88;;
27424;SDS011;15244;49.088;11.886;2022-07-23T09:40:13;2.70;;;2.53;;
27424;SDS011;15244;49.088;11.886;2022-07-23T09:45:17;2.88;;;2.67;;
27424;SDS011;15244;49.088;11.886;2022-07-23T09:50:19;2.95;;;2.83;;
27424;SDS011;15244;49.088;11.886;2022-07-23T09:55:31;2.55;;;2.45;;
27424;SDS011;15244;49.088;11.886;2022-07-23T10:00:40;3.00;;;2.85;;
27424;SDS011;15244;49.088;11.886;2022-07-23T10:05:42;2.90;;;2.70;;
27424;SDS011;15244;49.088;11.886;2022-07-23T10:11:04;3.30;;;3.10;;
27424;SDS011;15244;49.088;11.886;2022-07-23T10:16:25;3.58;;;3.38;;
27424;SDS011;15244;49.088;11.886;2022-07-23T10:21:36;3.63;;;3.42;;
27424;SDS011;15244;49.088;11.886;2022-07-23T10:32:17;3.60;;;3.40;;
27424;SDS011;15244;49.088;11.886;2022-07-23T10:37:46;3.22;;;3.03;;
27424;SDS011;15244;49.088;11.886;2022-07-23T10:42:51;3.92;;;3.58;;
27424;SDS011;15244;49.088;11.886;2022-07-23T10:47:54;4.18;;;3.88;;
27424;SDS011;15244;49.088;11.886;2022-07-23T10:58:10;3.75;;;3.55;;
27424;SDS011;15244;49.088;11.886;2022-07-23T11:03:31;5.30;;;4.35;;
27424;SDS011;15244;49.088;11.886;2022-07-23T11:08:36;4.07;;;3.78;;
27424;SDS011;15244;49.088;11.886;2022-07-23T11:13:45;3.50;;;3.30;;
27424;SDS011;15244;49.088;11.886;2022-07-23T11:34:49;3.17;;;3.03;;
27424;SDS011;15244;49.088;11.886;2022-07-23T11:39:54;3.60;;;3.35;;
27424;SDS011;15244;49.088;11.886;2022-07-23T11:44:57;3.88;;;3.58;;
27424;SDS011;15244;49.088;11.886;2022-07-23T11:50:00;3.88;;;3.63;;
27424;SDS011;15244;49.088;11.886;2022-07-23T11:55:06;3.70;;;3.50;;
27424;SDS011;15244;49.088;11.886;2022-07-23T12:00:11;3.42;;;3.22;;
27424;SDS011;15244;49.088;11.886;2022-07-23T12:05:34;3.45;;;3.10;;
27424;SDS011;15244;49.088;11.886;2022-07-23T12:10:38;3.15;;;2.95;;
27424;SDS011;15244;49.088;11.886;2022-07-23T12:15:46;4.03;;;3.20;;
27424;SDS011;15244;49.088;11.886;2022-07-23T12:21:02;2.83;;;2.72;;
27424;SDS011;15244;49.088;11.886;2022-07-23T12:26:05;2.75;;;2.55;;
27424;SDS011;15244;49.088;11.886;2022-07-23T12:31:08;3.60;;;3.30;;
27424;SDS011;15244;49.088;11.886;2022-07-23T12:36:13;3.05;;;2.85;;
27424;SDS011;15244;49.088;11.886;2022-07-23T12:41:16;2.80;;;2.70;;
27424;SDS011;15244;49.088;11.886;2022-07-23T12:46:19;3.70;;;3.42;;
27424;SDS011;15244;49.088;11.886;2022-07-23T12:51:22;2.70;;;2.60;;
27424;SDS011;15244;49.088;11.886;2022-07-23T12:56:30;5.00;;;3.30;;
27424;SDS011;15244;49.088;11.886;2022-07-23T13:01:34;3.60;;;3.30;;
27424;SDS011;15244;49.088;11.886;2022-07-23T13:06:39;3.22;;;3.10;;
27424;SDS011;15244;49.088;11.886;2022-07-23T13:11:46;3.00;;;2.90;;
27424;SDS011;15244;49.088;11.886;2022-07-23T13:16:49;3.97;;;3.63;;
27424;SDS011;15244;49.088;11.886;2022-07-23T13:21:52;3.80;;;3.55;;
27424;SDS011;15244;49.088;11.886;2022-07-23T13:26:54;3.33;;;3.13;;
27424;SDS011;15244;49.088;11.886;2022-07-23T13:32:01;3.50;;;3.30;;
27424;SDS011;15244;49.088;11.886;2022-07-23T13:37:11;3.60;;;3.40;;
27424;SDS011;15244;49.088;11.886;2022-07-23T13:42:14;3.55;;;3.35;;
27424;SDS011;15244;49.088;11.886;2022-07-23T13:47:16;3.60;;;3.40;;
27424;SDS011;15244;49.088;11.886;2022-07-23T13:52:21;3.30;;;3.00;;
27424;SDS011;15244;49.088;11.886;2022-07-23T13:57:23;3.03;;;2.85;;
27424;SDS011;15244;49.088;11.886;2022-07-23T14:02:27;2.97;;;2.78;;
27424;SDS011;15244;49.088;11.886;2022-07-23T14:07:29;3.08;;;2.88;;
27424;SDS011;15244;49.088;11.886;2022-07-23T14:12:31;3.22;;;3.10;;
27424;SDS011;15244;49.088;11.886;2022-07-23T14:17:37;2.70;;;2.60;;
27424;SDS011;15244;49.088;11.886;2022-07-23T14:22:41;3.42;;;2.70;;
27424;SDS011;15244;49.088;11.886;2022-07-23T14:27:43;4.10;;;3.28;;
27424;SDS011;15244;49.088;11.886;2022-07-23T14:32:46;3.15;;;2.80;;
27424;SDS011;15244;49.088;11.886;2022-07-23T14:37:48;3.13;;;2.90;;
27424;SDS011;15244;49.088;11.886;2022-07-23T14:42:50;2.83;;;2.70;;
27424;SDS011;15244;49.088;11.886;2022-07-23T14:47:52;2.80;;;2.70;;
27424;SDS011;15244;49.088;11.886;2022-07-23T14:52:54;3.10;;;2.83;;
27424;SDS011;15244;49.088;11.886;2022-07-23T14:57:57;2.58;;;2.47;;
27424;SDS011;15244;49.088;11.886;2022-07-23T15:02:59;2.97;;;2.88;;
27424;SDS011;15244;49.088;11.886;2022-07-23T15:08:01;4.00;;;2.72;;
27424;SDS011;15244;49.088;11.886;2022-07-23T15:13:02;2.65;;;2.55;;
27424;SDS011;15244;49.088;11.886;2022-07-23T15:18:04;2.83;;;2.63;;
27424;SDS011;15244;49.088;11.886;2022-07-23T15:23:07;2.80;;;2.60;;
27424;SDS011;15244;49.088;11.886;2022-07-23T15:28:10;2.63;;;2.53;;
27424;SDS011;15244;49.088;11.886;2022-07-23T15:33:12;3.15;;;2.85;;
27424;SDS011;15244;49.088;11.886;2022-07-23T15:38:21;2.50;;;2.40;;
27424;SDS011;15244;49.088;11.886;2022-07-23T15:43:26;2.80;;;2.60;;
27424;SDS011;15244;49.088;11.886;2022-07-23T15:48:28;2.92;;;2.83;;
27424;SDS011;15244;49.088;11.886;2022-07-23T15:53:31;3.85;;;3.00;;
27424;SDS011;15244;49.088;11.886;2022-07-23T15:58:37;3.00;;;2.83;;
27424;SDS011;15244;49.088;11.886;2022-07-23T16:03:39;4.78;;;2.53;;
27424;SDS011;15244;49.088;11.886;2022-07-23T16:08:41;2.92;;;2.65;;
27424;SDS011;15244;49.088;11.886;2022-07-23T16:13:44;2.58;;;2.47;;
27424;SDS011;15244;49.088;11.886;2022-07-23T16:18:46;2.65;;;2.55;;
27424;SDS011;15244;49.088;11.886;2022-07-23T16:23:52;3.63;;;2.70;;
27424;SDS011;15244;49.088;11.886;2022-07-23T16:28:53;2.50;;;2.40;;
27424;SDS011;15244;49.088;11.886;2022-07-23T16:33:56;2.53;;;2.33;;
27424;SDS011;15244;49.088;11.886;2022-07-23T16:38:58;2.63;;;2.47;;
27424;SDS011;15244;49.088;11.886;2022-07-23T16:44:06;2.83;;;2.65;;
27424;SDS011;15244;49.088;11.886;2022-07-23T16:49:08;2.63;;;2.53;;
27424;SDS011;15244;49.088;11.886;2022-07-23T16:54:11;2.67;;;2.47;;
27424;SDS011;15244;49.088;11.886;2022-07-23T16:59:12;2.95;;;2.75;;
27424;SDS011;15244;49.088;11.886;2022-07-23T17:04:14;3.10;;;2.80;;
27424;SDS011;15244;49.088;11.886;2022-07-23T17:09:16;3.35;;;2.92;;
27424;SDS011;15244;49.088;11.886;2022-07-23T17:14:18;3.28;;;2.72;;
27424;SDS011;15244;49.088;11.886;2022-07-23T17:19:20;3.28;;;3.03;;
27424;SDS011;15244;49.088;11.886;2022-07-23T17:24:21;3.50;;;3.05;;
27424;SDS011;15244;49.088;11.886;2022-07-23T17:29:23;3.15;;;2.95;;
27424;SDS011;15244;49.088;11.886;2022-07-23T17:34:25;3.47;;;3.28;;
27424;SDS011;15244;49.088;11.886;2022-07-23T17:39:28;3.63;;;3.42;;
27424;SDS011;15244;49.088;11.886;2022-07-23T17:44:30;4.68;;;4.10;;
27424;SDS011;15244;49.088;11.886;2022-07-23T17:49:32;5.47;;;4.55;;
27424;SDS011;15244;49.088;11.886;2022-07-23T17:54:34;71.85;;;11.52;;
27424;SDS011;15244;49.088;11.886;2022-07-23T17:59:35;59.75;;;9.18;;
27424;SDS011;15244;49.088;11.886;2022-07-23T18:04:37;4.40;;;4.20;;
27424;SDS011;15244;49.088;11.886;2022-07-23T18:09:39;4.97;;;4.38;;
27424;SDS011;15244;49.088;11.886;2022-07-23T18:14:41;4.30;;;3.97;;
27424;SDS011;15244;49.088;11.886;2022-07-23T18:19:42;4.47;;;4.28;;
27424;SDS011;15244;49.088;11.886;2022-07-23T18:24:45;4.35;;;4.00;;
27424;SDS011;15244;49.088;11.886;2022-07-23T18:29:47;3.80;;;3.60;;
27424;SDS011;15244;49.088;11.886;2022-07-23T18:34:49;4.25;;;4.05;;
27424;SDS011;15244;49.088;11.886;2022-07-23T18:39:51;4.28;;;3.97;;
27424;SDS011;15244;49.088;11.886;2022-07-23T18:44:52;4.28;;;3.97;;
27424;SDS011;15244;49.088;11.886;2022-07-23T18:49:54;4.57;;;4.28;;
27424;SDS011;15244;49.088;11.886;2022-07-23T18:54:56;5.00;;;4.43;;
27424;SDS011;15244;49.088;11.886;2022-07-23T18:59:58;4.70;;;4.28;;
27424;SDS011;15244;49.088;11.886;2022-07-23T19:04:59;4.72;;;4.43;;
27424;SDS011;15244;49.088;11.886;2022-07-23T19:10:03;4.68;;;4.30;;
27424;SDS011;15244;49.088;11.886;2022-07-23T19:15:06;4.72;;;4.32;;
27424;SDS011;15244;49.088;11.886;2022-07-23T19:20:09;6.78;;;4.85;;
27424;SDS011;15244;49.088;11.886;2022-07-23T19:25:21;5.18;;;4.72;;
27424;SDS011;15244;49.088;11.886;2022-07-23T19:30:22;4.88;;;4.47;;
27424;SDS011;15244;49.088;11.886;2022-07-23T19:35:24;4.45;;;4.03;;
27424;SDS011;15244;49.088;11.886;2022-07-23T19:40:26;5.07;;;4.45;;
27424;SDS011;15244;49.088;11.886;2022-07-23T19:45:37;4.93;;;4.63;;
27424;SDS011;15244;49.088;11.886;2022-07-23T19:50:42;4.75;;;4.40;;
27424;SDS011;15244;49.088;11.886;2022-07-23T19:55:44;5.30;;;4.72;;
27424;SDS011;15244;49.088;11.886;2022-07-23T20:00:46;4.85;;;4.53;;
27424;SDS011;15244;49.088;11.886;2022-07-23T20:05:49;5.05;;;4.75;;
27424;SDS011;15244;49.088;11.886;2022-07-23T20:10:51;5.00;;;4.60;;
27424;SDS011;15244;49.088;11.886;2022-07-23T20:15:53;4.97;;;4.57;;
27424;SDS011;15244;49.088;11.886;2022-07-23T20:20:54;5.38;;;4.90;;
27424;SDS011;15244;49.088;11.886;2022-07-23T20:25:58;5.05;;;4.47;;
27424;SDS011;15244;49.088;11.886;2022-07-23T20:31:00;5.07;;;4.60;;
27424;SDS011;15244;49.088;11.886;2022-07-23T20:36:05;5.03;;;4.72;;
27424;SDS011;15244;49.088;11.886;2022-07-23T20:41:07;6.47;;;5.00;;
27424;SDS011;15244;49.088;11.886;2022-07-23T20:46:09;4.88;;;4.50;;
27424;SDS011;15244;49.088;11.886;2022-07-23T20:51:10;5.47;;;5.07;;
27424;SDS011;15244;49.088;11.886;2022-07-23T20:56:12;5.32;;;4.93;;
27424;SDS011;15244;49.088;11.886;2022-07-23T21:01:14;5.05;;;4.72;;
27424;SDS011;15244;49.088;11.886;2022-07-23T21:06:16;5.18;;;4.78;;
27424;SDS011;15244;49.088;11.886;2022-07-23T21:11:18;4.85;;;4.55;;
27424;SDS011;15244;49.088;11.886;2022-07-23T21:16:20;4.95;;;4.50;;
27424;SDS011;15244;49.088;11.886;2022-07-23T21:21:22;5.25;;;4.75;;
27424;SDS011;15244;49.088;11.886;2022-07-23T21:26:24;5.25;;;4.75;;
27424;SDS011;15244;49.088;11.886;2022-07-23T21:31:33;5.22;;;4.72;;
27424;SDS011;15244;49.088;11.886;2022-07-23T21:36:35;6.07;;;5.47;;
27424;SDS011;15244;49.088;11.886;2022-07-23T21:41:37;5.85;;;5.28;;
27424;SDS011;15244;49.088;11.886;2022-07-23T21:46:39;5.32;;;4.90;;
27424;SDS011;15244;49.088;11.886;2022-07-23T21:51:40;5.18;;;4.82;;
27424;SDS011;15244;49.088;11.886;2022-07-23T21:56:45;5.25;;;4.95;;
27424;SDS011;15244;49.088;11.886;2022-07-23T22:01:48;5.75;;;5.35;;
27424;SDS011;15244;49.088;11.886;2022-07-23T22:06:50;5.90;;;5.43;;
27424;SDS011;15244;49.088;11.886;2022-07-23T22:11:52;5.32;;;4.97;;
27424;SDS011;15244;49.088;11.886;2022-07-23T22:16:53;5.55;;;5.15;;
27424;SDS011;15244;49.088;11.886;2022-07-23T22:21:55;5.78;;;5.35;;
27424;SDS011;15244;49.088;11.886;2022-07-23T22:26:57;5.68;;;5.28;;
27424;SDS011;15244;49.088;11.886;2022-07-23T22:31:58;6.20;;;5.75;;
27424;SDS011;15244;49.088;11.886;2022-07-23T22:37:00;5.88;;;5.47;;
27424;SDS011;15244;49.088;11.886;2022-07-23T22:42:02;5.88;;;5.47;;
27424;SDS011;15244;49.088;11.886;2022-07-23T22:47:03;6.30;;;5.80;;
27424;SDS011;15244;49.088;11.886;2022-07-23T22:52:05;6.15;;;5.75;;
27424;SDS011;15244;49.088;11.886;2022-07-23T22:57:10;6.63;;;6.07;;
27424;SDS011;15244;49.088;11.886;2022-07-23T23:02:11;6.20;;;5.80;;
27424;SDS011;15244;49.088;11.886;2022-07-23T23:07:13;7.47;;;6.30;;
27424;SDS011;15244;49.088;11.886;2022-07-23T23:12:15;6.43;;;6.03;;
27424;SDS011;15244;49.088;11.886;2022-07-23T23:17:17;7.40;;;6.80;;
27424;SDS011;15244;49.088;11.886;2022-07-23T23:22:18;6.32;;;5.90;;
27424;SDS011;15244;49.088;11.886;2022-07-23T23:27:20;11.48;;;6.28;;
27424;SDS011;15244;49.088;11.886;2022-07-23T23:32:22;7.22;;;6.10;;
27424;SDS011;15244;49.088;11.886;2022-07-23T23:37:24;7.50;;;6.85;;
27424;SDS011;15244;49.088;11.886;2022-07-23T23:42:25;7.03;;;6.50;;
27424;SDS011;15244;49.088;11.886;2022-07-23T23:47:27;7.57;;;6.88;;
27424;SDS011;15244;49.088;11.886;2022-07-23T23:52:29;6.57;;;6.25;;
27424;SDS011;15244;49.088;11.886;2022-07-23T23:57:30;7.85;;;7.03;;
